Time;durP1;ratioP1;P1;durP2;ratioP2;P2;SDS_P1;SDS_P2;PMS_P1;PMS_P2;Temp;Humidity;BMP_temperature;BMP_pressure;BME280_temperature;BME280_humidity;BME280_pressure;Samples;Min_cycle;Max_cycle;Signal;HPM_P1;HPM_P2
2021/05/08 00:00:07;;;;;;;12.27;8.88;;;;;;;1.09;100.00;96333.19;1032045;28;20516;-49
2021/05/08 00:00:38;;;;;;;13.07;9.02;;;;;;;1.08;100.00;96334.09;1027865;28;20035;-51
2021/05/08 00:01:09;;;;;;;13.38;9.40;;;;;;;1.04;100.00;96327.34;1019848;28;20271;-49
2021/05/08 00:01:40;;;;;;;13.38;10.05;;;;;;;1.07;100.00;96334.97;1020033;29;20070;-50
2021/05/08 00:02:10;;;;;;;15.00;10.50;;;;;;;1.07;100.00;96333.25;1024129;28;20108;-47
2021/05/08 00:02:44;;;;;;;14.23;10.40;;;;;;;1.03;100.00;96325.63;1024052;29;20336;-49
2021/05/08 00:03:15;;;;;;;11.88;8.63;;;;;;;1.07;100.00;96332.38;1027819;28;20030;-50
2021/05/08 00:03:46;;;;;;;14.57;9.43;;;;;;;1.07;100.00;96329.81;1023753;28;20337;-52
2021/05/08 00:04:17;;;;;;;12.05;9.57;;;;;;;1.07;100.00;96337.56;1027998;28;20266;-49
2021/05/08 00:04:48;;;;;;;11.60;9.15;;;;;;;1.05;100.00;96327.28;1023971;29;20710;-50
2021/05/08 00:05:19;;;;;;;14.48;10.43;;;;;;;1.03;100.00;96323.88;1023835;29;20051;-49
2021/05/08 00:05:51;;;;;;;14.00;9.48;;;;;;;1.02;100.00;96323.94;1024012;29;20254;-51
2021/05/08 00:06:21;;;;;;;15.38;10.90;;;;;;;1.02;100.00;96323.94;1027949;28;20027;-50
2021/05/08 00:06:53;;;;;;;14.45;9.18;;;;;;;1.01;100.00;96328.25;1023998;28;20262;-49
2021/05/08 00:07:24;;;;;;;15.15;9.65;;;;;;;1.01;100.00;96328.25;1035701;28;20288;-50
2021/05/08 00:07:55;;;;;;;13.48;9.82;;;;;;;1.01;100.00;96329.97;1024053;29;20309;-48
2021/05/08 00:08:26;;;;;;;10.63;8.57;;;;;;;1.00;100.00;96333.47;1023913;29;20030;-49
2021/05/08 00:08:57;;;;;;;16.40;10.77;;;;;;;1.00;100.00;96330.88;1031859;28;20356;-51
2021/05/08 00:09:28;;;;;;;12.60;9.70;;;;;;;1.00;100.00;96333.47;1020021;29;20268;-51
2021/05/08 00:09:59;;;;;;;13.40;10.82;;;;;;;0.95;100.00;96328.41;1024021;29;20598;-49
2021/05/08 00:10:30;;;;;;;11.68;9.98;;;;;;;1.00;100.00;96333.47;1023989;29;20037;-49
2021/05/08 00:11:01;;;;;;;14.30;9.48;;;;;;;0.99;100.00;96334.34;1027851;28;20027;-50
2021/05/08 00:11:34;;;;;;;11.90;9.85;;;;;;;0.97;100.00;96339.53;1027831;28;20345;-51
2021/05/08 00:12:05;;;;;;;14.35;10.70;;;;;;;1.00;100.00;96338.63;1023900;29;20273;-50
2021/05/08 00:12:36;;;;;;;13.27;10.15;;;;;;;1.00;100.00;96338.63;1031947;28;20627;-50
2021/05/08 00:13:07;;;;;;;15.25;10.70;;;;;;;1.01;100.00;96340.31;1023991;29;20267;-49
2021/05/08 00:13:38;;;;;;;13.13;10.38;;;;;;;1.01;100.00;96329.97;1031643;28;20272;-48
2021/05/08 00:14:09;;;;;;;15.45;10.88;;;;;;;1.01;100.00;96333.41;1027952;28;20374;-51
2021/05/08 00:14:40;;;;;;;17.77;11.30;;;;;;;1.02;100.00;96336.84;1027950;28;20085;-51
2021/05/08 00:15:12;;;;;;;12.73;9.98;;;;;;;1.01;100.00;96341.13;1027901;28;20491;-48
2021/05/08 00:15:43;;;;;;;14.18;9.95;;;;;;;1.03;100.00;96329.03;1027836;28;20090;-50
2021/05/08 00:16:14;;;;;;;13.77;10.05;;;;;;;1.04;100.00;96329.91;1019961;29;20260;-48
2021/05/08 00:16:45;;;;;;;12.25;9.55;;;;;;;1.04;100.00;96333.31;1028057;28;20261;-52
2021/05/08 00:17:16;;;;;;;13.18;8.82;;;;;;;1.03;100.00;96330.78;1027950;28;20101;-49
2021/05/08 00:17:47;;;;;;;13.00;9.32;;;;;;;1.05;100.00;96329.00;1023854;29;20325;-49
2021/05/08 00:18:17;;;;;;;12.63;9.48;;;;;;;1.07;100.00;96334.97;1020006;29;20525;-51
2021/05/08 00:18:48;;;;;;;11.88;9.55;;;;;;;1.07;100.00;96325.50;1023940;29;20394;-49
2021/05/08 00:19:20;;;;;;;14.77;9.52;;;;;;;1.08;100.00;96332.34;1023804;29;20042;-51
2021/05/08 00:19:51;;;;;;;13.65;10.02;;;;;;;1.07;100.00;96327.22;1019885;29;20027;-49
2021/05/08 00:20:22;;;;;;;15.35;10.13;;;;;;;1.08;100.00;96336.69;1019996;29;20343;-49
2021/05/08 00:20:53;;;;;;;12.18;9.63;;;;;;;1.08;100.00;96328.94;1027875;28;20257;-50
2021/05/08 00:21:24;;;;;;;15.55;9.75;;;;;;;1.06;100.00;96331.56;1027812;28;20042;-48
2021/05/08 00:21:55;;;;;;;14.68;10.45;;;;;;;1.08;100.00;96332.34;1027760;28;20262;-51
2021/05/08 00:22:26;;;;;;;14.55;10.07;;;;;;;1.06;100.00;96328.97;1027852;28;20067;-48
2021/05/08 00:22:57;;;;;;;16.05;10.88;;;;;;;1.04;100.00;96324.75;1020087;28;20262;-51
2021/05/08 00:23:28;;;;;;;14.85;10.77;;;;;;;1.02;100.00;96329.09;1019768;29;20015;-50
2021/05/08 00:23:59;;;;;;;13.88;9.63;;;;;;;1.03;100.00;96330.78;1019713;29;20091;-50
2021/05/08 00:24:30;;;;;;;12.90;9.07;;;;;;;1.00;100.00;96326.56;1023855;29;20370;-50
2021/05/08 00:25:01;;;;;;;16.02;10.30;;;;;;;1.01;100.00;96327.41;1027912;28;20054;-49
2021/05/08 00:25:32;;;;;;;13.73;10.30;;;;;;;0.99;100.00;96329.19;1027859;28;20480;-49
2021/05/08 00:26:03;;;;;;;11.50;9.90;;;;;;;0.94;100.00;96326.72;1023958;29;20269;-49
2021/05/08 00:26:33;;;;;;;12.30;9.57;;;;;;;0.93;100.00;96332.75;1023854;29;20104;-50
2021/05/08 00:27:05;;;;;;;13.73;9.85;;;;;;;0.89;100.00;96324.25;1027861;28;20429;-50
2021/05/08 00:27:36;;;;;;;13.32;10.23;;;;;;;0.91;100.00;96331.97;1023952;29;20023;-49
2021/05/08 00:28:07;;;;;;;11.45;9.30;;;;;;;0.92;100.00;96331.06;1023808;29;20263;-51
2021/05/08 00:28:38;;;;;;;14.48;9.50;;;;;;;0.91;100.00;96332.81;1028005;28;20037;-50
2021/05/08 00:29:10;;;;;;;14.25;10.13;;;;;;;0.90;100.00;96331.13;1031826;28;20389;-50
2021/05/08 00:29:41;;;;;;;12.68;9.07;;;;;;;0.91;100.00;96326.81;1035882;28;20296;-49
2021/05/08 00:30:13;;;;;;;10.93;9.30;;;;;;;0.91;100.00;96327.63;1023742;28;20277;-50
2021/05/08 00:30:44;;;;;;;21.10;11.65;;;;;;;0.86;100.00;96321.75;1019778;29;20329;-50
2021/05/08 00:31:15;;;;;;;15.38;10.88;;;;;;;0.92;100.00;96333.63;1023827;28;20322;-51
2021/05/08 00:31:46;;;;;;;11.88;9.02;;;;;;;0.91;100.00;96330.22;1027923;28;20019;-50
2021/05/08 00:32:17;;;;;;;11.55;9.52;;;;;;;0.91;100.00;96334.53;1027433;28;20242;-48
2021/05/08 00:32:47;;;;;;;12.50;9.35;;;;;;;0.90;100.00;96333.69;1027833;28;20082;-49
2021/05/08 00:33:19;;;;;;;15.38;9.90;;;;;;;0.88;100.00;96330.31;1027786;28;20057;-48
2021/05/08 00:33:50;;;;;;;12.43;9.55;;;;;;;0.86;100.00;96326.91;1027635;28;20509;-51
2021/05/08 00:34:21;;;;;;;12.40;9.52;;;;;;;0.88;100.00;96330.31;1027683;28;20341;-49
2021/05/08 00:34:52;;;;;;;13.52;9.00;;;;;;;0.86;100.00;96332.06;1027849;28;20056;-50
2021/05/08 00:35:23;;;;;;;12.55;8.45;;;;;;;0.87;100.00;96332.94;1019872;28;20252;-49
2021/05/08 00:35:54;;;;;;;10.77;9.10;;;;;;;0.84;100.00;96323.53;1023758;29;20022;-51
2021/05/08 00:36:25;;;;;;;12.82;9.85;;;;;;;0.86;100.00;96324.31;1023747;29;20266;-51
2021/05/08 00:36:56;;;;;;;11.55;8.60;;;;;;;0.88;100.00;96327.75;1019829;29;20339;-52
2021/05/08 00:37:27;;;;;;;11.60;9.18;;;;;;;0.90;100.00;96325.09;1023947;28;20030;-49
2021/05/08 00:37:59;;;;;;;12.80;9.40;;;;;;;0.89;100.00;96326.00;1023795;28;20273;-49
2021/05/08 00:38:29;;;;;;;12.50;8.52;;;;;;;0.89;100.00;96329.41;1031670;28;20018;-49
2021/05/08 00:39:01;;;;;;;11.15;8.88;;;;;;;0.90;100.00;96325.09;1031793;28;20262;-48
2021/05/08 00:39:32;;;;;;;11.40;9.45;;;;;;;0.91;100.00;96324.22;1023791;28;20512;-50
2021/05/08 00:40:04;;;;;;;10.57;8.43;;;;;;;0.92;100.00;96326.75;1023768;28;20270;-49
2021/05/08 00:40:35;;;;;;;15.82;8.75;;;;;;;0.95;100.00;96324.09;1031724;28;20321;-50
2021/05/08 00:41:07;;;;;;;10.23;8.25;;;;;;;0.96;100.00;96323.22;1031705;28;20257;-51
2021/05/08 00:41:38;;;;;;;10.00;7.82;;;;;;;0.95;100.00;96318.09;1023884;28;20122;-49
2021/05/08 00:42:10;;;;;;;11.85;9.32;;;;;;;0.94;100.00;96326.72;1019914;29;20642;-50
2021/05/08 00:42:41;;;;;;;12.18;8.98;;;;;;;0.94;100.00;96319.00;1031645;28;20258;-50
2021/05/08 00:43:14;;;;;;;10.75;8.48;;;;;;;0.95;100.00;96316.34;1027826;28;20258;-49
2021/05/08 00:43:45;;;;;;;11.98;8.35;;;;;;;0.96;100.00;96324.97;1023583;29;20027;-48
2021/05/08 00:44:16;;;;;;;14.82;8.75;;;;;;;0.92;100.00;96307.84;1027865;28;20356;-50
2021/05/08 00:44:47;;;;;;;10.90;9.27;;;;;;;0.94;100.00;96317.25;1019753;29;20333;-49
2021/05/08 00:45:18;;;;;;;11.07;8.10;;;;;;;0.93;100.00;96315.53;1023741;29;20031;-51
2021/05/08 00:45:49;;;;;;;12.05;8.73;;;;;;;0.94;100.00;96317.25;1031861;28;20766;-50
2021/05/08 00:46:20;;;;;;;13.00;9.13;;;;;;;0.96;100.00;96320.63;1019833;29;20268;-51
2021/05/08 00:46:52;;;;;;;11.50;9.10;;;;;;;0.95;100.00;96316.34;1023601;28;20113;-48
2021/05/08 00:47:23;;;;;;;12.60;8.93;;;;;;;0.96;100.00;96319.78;1027698;28;20270;-50
2021/05/08 00:48:02;;;;;;;13.95;8.75;;;;;;;0.97;100.00;96321.47;1023775;28;20666;-49
2021/05/08 00:48:33;;;;;;;11.02;8.63;;;;;;;0.99;100.00;96324.00;1023726;29;20341;-49
2021/05/08 00:49:05;;;;;;;11.85;8.70;;;;;;;0.99;100.00;96318.84;1023670;28;20277;-51
2021/05/08 00:49:39;;;;;;;12.00;8.75;;;;;;;0.94;100.00;96314.66;1023738;29;20269;-51
2021/05/08 00:50:11;;;;;;;12.07;9.15;;;;;;;0.93;100.00;96320.69;1019781;29;20259;-50
2021/05/08 00:50:42;;;;;;;14.13;9.38;;;;;;;0.93;100.00;96322.44;1019683;29;20294;-50
2021/05/08 00:51:13;;;;;;;12.07;9.70;;;;;;;0.90;100.00;96314.78;1019450;29;20303;-51
2021/05/08 00:51:44;;;;;;;11.65;8.65;;;;;;;0.89;100.00;96323.41;1023919;28;20263;-50
2021/05/08 00:52:15;;;;;;;11.48;8.70;;;;;;;0.83;100.00;96316.69;1027733;28;20629;-49
2021/05/08 00:52:47;;;;;;;15.32;9.40;;;;;;;0.84;100.00;96320.09;1027819;28;20266;-50
2021/05/08 00:53:17;;;;;;;14.70;9.95;;;;;;;0.81;100.00;96315.88;1023665;28;20031;-49
2021/05/08 00:53:48;;;;;;;12.27;9.15;;;;;;;0.82;100.00;96322.72;1027109;28;20287;-51
2021/05/08 00:54:19;;;;;;;14.18;8.75;;;;;;;0.82;100.00;96317.56;1024211;28;20027;-50
2021/05/08 00:54:50;;;;;;;12.90;10.00;;;;;;;0.79;100.00;96325.41;1031506;28;20261;-50
2021/05/08 00:55:21;;;;;;;13.73;9.25;;;;;;;0.77;100.00;96315.13;1027381;28;20031;-49
2021/05/08 00:55:52;;;;;;;12.75;10.07;;;;;;;0.74;100.00;96315.19;1031626;28;20285;-50
2021/05/08 00:56:23;;;;;;;15.45;10.07;;;;;;;0.71;100.00;96314.41;1027462;28;20026;-51
2021/05/08 00:56:54;;;;;;;11.68;9.52;;;;;;;0.73;100.00;96317.78;1023775;28;20500;-49
2021/05/08 00:57:25;;;;;;;12.23;9.23;;;;;;;0.74;100.00;96322.91;1027761;28;20075;-50
2021/05/08 00:57:56;;;;;;;15.07;10.40;;;;;;;0.73;100.00;96315.22;1031560;28;20053;-49
2021/05/08 00:58:27;;;;;;;12.77;8.77;;;;;;;0.71;100.00;96320.44;1031307;28;20257;-51
2021/05/08 00:58:58;;;;;;;11.50;8.57;;;;;;;0.72;100.00;96322.13;1027776;28;20293;-49
2021/05/08 00:59:29;;;;;;;14.43;9.00;;;;;;;0.71;100.00;96315.28;1031747;28;20025;-50
2021/05/08 01:00:00;;;;;;;12.52;9.15;;;;;;;0.72;100.00;96316.97;1031594;28;20289;-51
2021/05/08 01:00:31;;;;;;;12.68;9.27;;;;;;;0.72;100.00;96322.13;1031697;28;20614;-50
2021/05/08 01:01:02;;;;;;;16.10;9.25;;;;;;;0.69;100.00;96321.34;1031760;28;20258;-51
2021/05/08 01:01:33;;;;;;;13.68;9.82;;;;;;;0.68;100.00;96323.09;1031738;28;20249;-50
2021/05/08 01:02:05;;;;;;;13.20;8.60;;;;;;;0.70;100.00;96316.16;1027584;28;20624;-51
2021/05/08 01:02:36;;;;;;;12.75;10.35;;;;;;;0.69;100.00;96321.34;1028205;28;20019;-50
2021/05/08 01:03:07;;;;;;;13.10;10.43;;;;;;;0.71;100.00;96310.13;1027679;28;20289;-50
2021/05/08 01:03:39;;;;;;;14.60;10.00;;;;;;;0.72;100.00;96316.97;1031436;28;20331;-49
2021/05/08 01:04:10;;;;;;;11.57;9.15;;;;;;;0.73;100.00;96315.22;1031673;28;20639;-48
2021/05/08 01:04:42;;;;;;;12.43;9.63;;;;;;;0.71;100.00;96306.66;1031674;28;20265;-50
2021/05/08 01:05:13;;;;;;;13.05;9.85;;;;;;;0.69;100.00;96308.44;1027737;28;20258;-49
2021/05/08 01:05:44;;;;;;;13.30;10.20;;;;;;;0.74;100.00;96314.34;1023694;28;20265;-48
2021/05/08 01:06:15;;;;;;;12.88;9.75;;;;;;;0.72;100.00;96311.78;1035691;28;20285;-50
2021/05/08 01:06:46;;;;;;;13.52;9.90;;;;;;;0.72;100.00;96313.53;1031654;28;20781;-50
2021/05/08 01:07:18;;;;;;;12.23;9.75;;;;;;;0.70;100.00;96320.47;1031700;28;20018;-50
2021/05/08 01:07:50;;;;;;;13.27;10.23;;;;;;;0.68;100.00;96312.78;1027644;28;20258;-50
2021/05/08 01:08:20;;;;;;;15.70;9.25;;;;;;;0.67;100.00;96312.81;1031527;28;20276;-49
2021/05/08 01:08:51;;;;;;;13.98;9.73;;;;;;;0.66;100.00;96309.38;1027627;28;20258;-50
2021/05/08 01:09:23;;;;;;;15.60;10.85;;;;;;;0.66;100.00;96316.28;1031805;28;20144;-50
2021/05/08 01:09:54;;;;;;;14.13;10.52;;;;;;;0.63;100.00;96314.59;1031701;28;20253;-49
2021/05/08 01:10:25;;;;;;;14.93;10.73;;;;;;;0.67;100.00;96312.81;1023617;28;20277;-49
2021/05/08 01:10:56;;;;;;;13.70;10.40;;;;;;;0.67;100.00;96312.81;1035664;28;20570;-50
2021/05/08 01:11:28;;;;;;;16.33;10.77;;;;;;;0.68;100.00;96317.09;1026792;28;20254;-52
2021/05/08 01:11:59;;;;;;;13.05;10.23;;;;;;;0.69;100.00;96319.59;1027682;28;20026;-49
2021/05/08 01:12:31;;;;;;;16.38;10.32;;;;;;;0.71;100.00;96317.84;1027492;28;20306;-50
2021/05/08 01:13:02;;;;;;;19.27;11.13;;;;;;;0.71;100.00;96320.44;1023705;28;20071;-49
2021/05/08 01:13:33;;;;;;;14.75;10.73;;;;;;;0.72;100.00;96314.38;1027699;28;20440;-50
2021/05/08 01:14:04;;;;;;;13.23;10.40;;;;;;;0.61;100.00;96300.06;1027593;28;20258;-50
2021/05/08 01:14:35;;;;;;;13.88;10.32;;;;;;;0.69;100.00;96316.19;1023552;29;20354;-49
2021/05/08 01:15:08;;;;;;;16.27;10.80;;;;;;;0.67;100.00;96317.97;1031666;28;20249;-50
2021/05/08 01:15:41;;;;;;;17.52;11.23;;;;;;;0.64;100.00;96318.91;1023735;28;20092;-50
2021/05/08 01:16:12;;;;;;;14.27;10.80;;;;;;;0.62;100.00;96318.09;1023734;29;20857;-50
2021/05/08 01:16:43;;;;;;;17.48;11.20;;;;;;;0.62;100.00;96317.22;1019678;29;20291;-48
2021/05/08 01:17:14;;;;;;;15.93;11.98;;;;;;;0.59;100.00;96325.88;1023827;29;20030;-51
2021/05/08 01:17:45;;;;;;;12.85;10.68;;;;;;;0.57;100.00;96323.34;1023625;28;20266;-48
2021/05/08 01:18:16;;;;;;;16.52;10.82;;;;;;;0.56;100.00;96318.22;1023641;28;20026;-50
2021/05/08 01:18:51;;;;;;;15.68;10.88;;;;;;;0.56;100.00;96320.81;1027553;28;20465;-49
2021/05/08 01:19:22;;;;;;;13.95;10.57;;;;;;;0.55;100.00;96316.53;1035755;28;20264;-50
2021/05/08 01:19:53;;;;;;;15.02;11.40;;;;;;;0.53;100.00;96316.56;1027750;28;20253;-49
2021/05/08 01:20:24;;;;;;;13.60;10.35;;;;;;;0.53;100.00;96319.16;1031777;28;20097;-50
2021/05/08 01:20:55;;;;;;;14.70;10.27;;;;;;;0.54;100.00;96318.25;1027548;28;20035;-49
2021/05/08 01:21:26;;;;;;;13.77;10.35;;;;;;;0.56;100.00;96319.09;1023730;28;20117;-50
2021/05/08 01:21:57;;;;;;;14.70;10.38;;;;;;;0.45;100.00;96300.47;1019774;29;20323;-48
2021/05/08 01:22:28;;;;;;;13.65;10.48;;;;;;;0.57;100.00;96319.94;1019735;29;20022;-50
2021/05/08 01:22:59;;;;;;;13.88;10.48;;;;;;;0.54;100.00;96320.84;1023613;29;20011;-49
2021/05/08 01:23:30;;;;;;;13.90;10.45;;;;;;;0.52;100.00;96314.88;1023487;28;20265;-51
2021/05/08 01:24:02;;;;;;;13.82;10.73;;;;;;;0.54;100.00;96320.84;1031592;28;20253;-50
2021/05/08 01:24:33;;;;;;;13.25;10.50;;;;;;;0.56;100.00;96321.66;1027663;28;20243;-49
2021/05/08 01:25:07;;;;;;;12.75;10.23;;;;;;;0.57;100.00;96319.94;1031515;28;20340;-50
2021/05/08 01:25:37;;;;;;;16.42;10.90;;;;;;;0.60;100.00;96321.56;1027651;28;20454;-50
2021/05/08 01:26:08;;;;;;;14.45;11.15;;;;;;;0.59;100.00;96318.16;1031634;28;20246;-49
2021/05/08 01:26:39;;;;;;;13.95;10.60;;;;;;;0.60;100.00;96314.69;1031574;28;20018;-50
2021/05/08 01:27:11;;;;;;;15.57;11.68;;;;;;;0.58;100.00;96319.91;1031411;28;20254;-47
2021/05/08 01:27:43;;;;;;;13.55;10.80;;;;;;;0.59;100.00;96320.72;1027621;28;20265;-49
2021/05/08 01:28:14;;;;;;;14.40;9.93;;;;;;;0.61;100.00;96318.13;1027346;28;20838;-50
2021/05/08 01:28:45;;;;;;;14.15;10.98;;;;;;;0.60;100.00;96316.41;1031713;28;20321;-50
2021/05/08 01:29:16;;;;;;;13.85;10.38;;;;;;;0.60;100.00;96322.41;1031522;28;20015;-51
2021/05/08 01:29:47;;;;;;;14.93;10.77;;;;;;;0.57;100.00;96319.94;1035724;28;20248;-50
2021/05/08 01:30:21;;;;;;;16.95;12.02;;;;;;;0.57;100.00;96320.75;1039678;28;20018;-50
2021/05/08 01:30:52;;;;;;;15.20;11.23;;;;;;;0.56;100.00;96320.81;1031602;28;20770;-51
2021/05/08 01:31:23;;;;;;;13.77;10.52;;;;;;;0.55;100.00;96329.44;1031472;28;20274;-49
2021/05/08 01:31:54;;;;;;;15.85;10.93;;;;;;;0.52;100.00;96320.03;1035700;28;20010;-49
2021/05/08 01:32:25;;;;;;;17.08;10.85;;;;;;;0.51;100.00;96323.50;1035625;28;20010;-48
2021/05/08 01:32:56;;;;;;;12.27;10.65;;;;;;;0.49;100.00;96325.28;1027626;28;20273;-50
2021/05/08 01:33:27;;;;;;;17.02;11.05;;;;;;;0.47;100.00;96329.63;1027406;28;20023;-50
2021/05/08 01:33:58;;;;;;;15.85;10.05;;;;;;;0.48;100.00;96326.16;1023483;29;20151;-49
2021/05/08 01:34:29;;;;;;;14.48;11.38;;;;;;;0.49;100.00;96324.41;1023648;29;20011;-48
2021/05/08 01:35:00;;;;;;;13.98;10.80;;;;;;;0.49;100.00;96326.97;1023633;29;20251;-50
2021/05/08 01:35:32;;;;;;;15.88;12.13;;;;;;;0.48;100.00;96328.72;1027417;28;20262;-50
2021/05/08 01:36:04;;;;;;;15.40;11.07;;;;;;;0.46;100.00;96327.91;1031555;28;20702;-51
2021/05/08 01:36:35;;;;;;;14.85;12.00;;;;;;;0.46;100.00;96337.38;1035715;28;20237;-50
2021/05/08 01:37:07;;;;;;;14.25;11.15;;;;;;;0.47;100.00;96328.75;1035548;28;20295;-52
2021/05/08 01:37:38;;;;;;;13.13;10.38;;;;;;;0.46;100.00;96327.09;1027553;28;20246;-49
2021/05/08 01:38:09;;;;;;;14.82;11.23;;;;;;;0.46;100.00;96327.09;1031602;28;20010;-48
2021/05/08 01:38:40;;;;;;;15.82;11.30;;;;;;;0.44;100.00;96326.28;1031555;28;20882;-51
2021/05/08 01:39:11;;;;;;;15.27;11.07;;;;;;;0.45;100.00;96326.25;1031589;28;20022;-49
2021/05/08 01:39:42;;;;;;;14.93;10.80;;;;;;;0.47;100.00;96319.31;1031517;28;20054;-49
2021/05/08 01:40:14;;;;;;;15.32;10.52;;;;;;;0.47;100.00;96324.47;1027558;28;20078;-50
2021/05/08 01:40:45;;;;;;;16.17;10.85;;;;;;;0.46;100.00;96327.09;1027553;28;20337;-52
2021/05/08 01:41:16;;;;;;;12.32;10.10;;;;;;;0.45;100.00;96322.78;1027585;28;20254;-49
2021/05/08 01:41:47;;;;;;;15.85;10.63;;;;;;;0.45;100.00;96326.25;1031541;28;20787;-50
2021/05/08 01:42:18;;;;;;;13.50;10.23;;;;;;;0.43;100.00;96319.41;1027565;28;20187;-50
2021/05/08 01:42:51;;;;;;;15.50;11.05;;;;;;;0.45;100.00;96325.38;1023717;29;20098;-50
2021/05/08 01:43:23;;;;;;;13.57;10.20;;;;;;;0.45;100.00;96321.09;1031552;28;20261;-50
2021/05/08 01:43:54;;;;;;;12.30;9.48;;;;;;;0.44;100.00;96321.13;1031334;28;20612;-49
2021/05/08 01:44:24;;;;;;;12.35;9.35;;;;;;;0.49;100.00;96319.25;1035553;28;20299;-51
2021/05/08 01:44:56;;;;;;;11.27;9.40;;;;;;;0.52;100.00;96320.03;1031546;28;20028;-50
2021/05/08 01:45:27;;;;;;;14.57;10.75;;;;;;;0.52;100.00;96326.91;1031598;28;20400;-50
2021/05/08 01:45:58;;;;;;;13.10;9.50;;;;;;;0.52;100.00;96322.59;1031561;28;20273;-49
2021/05/08 01:46:29;;;;;;;11.95;9.30;;;;;;;0.56;100.00;96323.38;1035671;28;20010;-50
2021/05/08 01:47:00;;;;;;;12.48;9.73;;;;;;;0.56;100.00;96320.81;1031584;28;20269;-49
2021/05/08 01:47:31;;;;;;;11.45;8.65;;;;;;;0.57;100.00;96323.34;1031677;28;20253;-50
2021/05/08 01:48:03;;;;;;;13.32;9.40;;;;;;;0.57;100.00;96318.19;1035564;28;20025;-50
2021/05/08 01:48:34;;;;;;;13.73;9.98;;;;;;;0.57;100.00;96323.34;1035685;28;20495;-50
2021/05/08 01:49:05;;;;;;;14.00;9.90;;;;;;;0.57;100.00;96314.78;1027640;28;20259;-50
2021/05/08 01:49:36;;;;;;;14.52;9.80;;;;;;;0.57;100.00;96315.59;1027548;28;20728;-49
2021/05/08 01:50:09;;;;;;;12.95;9.05;;;;;;;0.56;100.00;96320.81;1027525;28;20266;-52
2021/05/08 01:50:40;;;;;;;13.98;9.25;;;;;;;0.55;100.00;96319.97;1027584;28;20019;-49
2021/05/08 01:51:11;;;;;;;12.82;8.90;;;;;;;0.55;100.00;96319.97;1031572;28;20353;-46
2021/05/08 01:51:42;;;;;;;11.85;8.88;;;;;;;0.55;100.00;96319.13;1027536;28;20256;-50
2021/05/08 01:52:13;;;;;;;11.07;9.05;;;;;;;0.53;100.00;96314.00;1027413;28;20306;-48
2021/05/08 01:52:44;;;;;;;12.35;9.70;;;;;;;0.53;100.00;96318.31;1027638;28;20325;-49
2021/05/08 01:53:15;;;;;;;12.23;8.63;;;;;;;0.53;100.00;96320.91;1023487;28;20522;-57
2021/05/08 01:53:47;;;;;;;10.88;8.07;;;;;;;0.52;100.00;96317.44;1023410;29;20081;-50
2021/05/08 01:54:18;;;;;;;13.48;8.57;;;;;;;0.51;100.00;96318.34;1027434;28;20273;-50
2021/05/08 01:54:49;;;;;;;12.13;8.52;;;;;;;0.51;100.00;96312.34;1027677;28;20252;-50
2021/05/08 01:55:22;;;;;;;14.15;9.23;;;;;;;0.52;100.00;96314.03;1023523;29;20337;-47
2021/05/08 01:55:53;;;;;;;11.70;8.43;;;;;;;0.52;100.00;96314.88;1023626;29;20042;-49
2021/05/08 01:56:24;;;;;;;13.98;9.30;;;;;;;0.52;100.00;96314.03;1023435;28;20353;-49
2021/05/08 01:56:55;;;;;;;13.15;9.07;;;;;;;0.52;100.00;96320.03;1031565;28;20265;-50
2021/05/08 01:57:26;;;;;;;12.43;8.88;;;;;;;0.51;100.00;96318.34;1031545;28;20352;-51
2021/05/08 01:57:57;;;;;;;12.63;8.75;;;;;;;0.50;100.00;96319.22;1031730;28;20018;-49
2021/05/08 01:58:29;;;;;;;11.63;8.25;;;;;;;0.51;100.00;96314.94;1027380;28;20090;-50
2021/05/08 01:59:00;;;;;;;12.70;8.38;;;;;;;0.50;100.00;96311.47;1031570;28;20241;-50
2021/05/08 01:59:31;;;;;;;9.98;7.65;;;;;;;0.53;100.00;96316.56;1027675;28;20289;-48
2021/05/08 02:00:07;;;;;;;10.13;7.85;;;;;;;0.57;100.00;96314.78;1027713;28;20803;-50
2021/05/08 02:00:41;;;;;;;11.02;8.50;;;;;;;0.56;100.00;96311.34;1023449;28;20722;-50
2021/05/08 02:01:13;;;;;;;10.32;7.63;;;;;;;0.54;100.00;96312.25;1025106;28;20262;-49
2021/05/08 02:01:44;;;;;;;11.68;8.07;;;;;;;0.57;100.00;96314.78;1032921;28;20288;-50
2021/05/08 02:02:15;;;;;;;12.20;8.23;;;;;;;0.54;100.00;96310.53;1027311;28;20030;-49
2021/05/08 02:02:46;;;;;;;12.02;8.63;;;;;;;0.52;100.00;96309.72;1023403;29;20291;-51
2021/05/08 02:03:17;;;;;;;10.73;8.27;;;;;;;0.51;100.00;96308.03;1024068;29;20027;-51
2021/05/08 02:03:48;;;;;;;14.65;9.75;;;;;;;0.50;100.00;96311.47;1028193;28;20309;-50
2021/05/08 02:04:19;;;;;;;12.82;8.20;;;;;;;0.51;100.00;96308.03;1028384;28;20026;-50
2021/05/08 02:04:50;;;;;;;11.93;8.32;;;;;;;0.49;100.00;96309.81;1028229;28;20416;-52
2021/05/08 02:05:21;;;;;;;12.65;8.73;;;;;;;0.47;100.00;96303.84;1036373;28;20276;-49
2021/05/08 02:05:52;;;;;;;14.07;9.38;;;;;;;0.47;100.00;96305.56;1032381;28;20257;-50
2021/05/08 02:06:23;;;;;;;10.98;8.23;;;;;;;0.41;100.00;96308.28;1028296;28;20274;-50
2021/05/08 02:06:55;;;;;;;11.82;8.82;;;;;;;0.35;100.00;96309.28;1032225;28;20262;-51
2021/05/08 02:07:26;;;;;;;12.73;8.93;;;;;;;0.36;100.00;96305.84;1024449;28;20023;-51
2021/05/08 02:08:01;;;;;;;11.48;8.80;;;;;;;0.33;100.00;96304.16;1024344;28;20270;-49
2021/05/08 02:08:32;;;;;;;12.68;9.30;;;;;;;0.14;100.00;96278.00;1028380;28;20019;-48
2021/05/08 02:09:05;;;;;;;10.65;8.55;;;;;;;0.30;100.00;96303.38;1028266;28;20320;-49
2021/05/08 02:09:37;;;;;;;13.35;8.70;;;;;;;0.29;100.00;96299.13;1032336;28;20432;-51
2021/05/08 02:10:10;;;;;;;12.35;8.98;;;;;;;0.28;100.00;96310.31;1024429;28;20306;-51
2021/05/08 02:10:43;;;;;;;12.25;8.68;;;;;;;0.25;100.00;96300.09;1024216;29;20263;-50
2021/05/08 02:11:14;;;;;;;13.38;9.15;;;;;;;0.25;100.00;96305.25;1024265;28;20625;-50
2021/05/08 02:11:45;;;;;;;10.63;8.18;;;;;;;0.25;100.00;96305.25;1024364;28;20265;-48
2021/05/08 02:12:16;;;;;;;14.23;9.80;;;;;;;0.24;100.00;96304.38;1024384;28;20309;-49
2021/05/08 02:12:47;;;;;;;14.02;8.82;;;;;;;0.21;100.00;96308.75;1024428;28;20015;-49
2021/05/08 02:13:18;;;;;;;12.27;8.57;;;;;;;0.17;100.00;96301.13;1020416;28;20036;-48
2021/05/08 02:13:49;;;;;;;11.23;8.20;;;;;;;0.20;100.00;96300.19;1028201;28;20258;-51
2021/05/08 02:14:20;;;;;;;14.43;9.20;;;;;;;0.18;100.00;96307.94;1024463;29;20505;-49
2021/05/08 02:14:51;;;;;;;13.07;8.48;;;;;;;0.21;100.00;96299.31;1020489;29;20019;-51
2021/05/08 02:15:22;;;;;;;13.75;8.63;;;;;;;0.24;100.00;96304.38;1028216;28;20027;-49
2021/05/08 02:15:53;;;;;;;10.70;8.20;;;;;;;0.25;100.00;96300.94;1032330;28;20265;-49
2021/05/08 02:16:24;;;;;;;12.63;8.88;;;;;;;0.25;100.00;96302.69;1032342;28;20022;-49
2021/05/08 02:16:55;;;;;;;10.20;8.93;;;;;;;0.25;100.00;96303.50;1028281;28;20257;-50
2021/05/08 02:17:26;;;;;;;11.02;8.65;;;;;;;0.25;100.00;96306.09;1020398;29;20034;-48
2021/05/08 02:17:57;;;;;;;11.55;9.05;;;;;;;0.24;100.00;96300.97;1024370;29;20027;-52
2021/05/08 02:18:28;;;;;;;12.10;8.63;;;;;;;0.24;100.00;96299.22;1032346;28;20026;-50
2021/05/08 02:18:59;;;;;;;9.98;8.30;;;;;;;0.14;100.00;96282.31;1028370;28;20772;-49
2021/05/08 02:19:30;;;;;;;9.98;8.07;;;;;;;0.22;100.00;96300.16;1032231;28;20029;-48
2021/05/08 02:20:03;;;;;;;9.82;7.68;;;;;;;0.19;100.00;96293.38;1032276;28;20265;-50
2021/05/08 02:20:37;;;;;;;13.73;8.90;;;;;;;0.21;100.00;96298.47;1024299;28;20255;-50
2021/05/08 02:21:08;;;;;;;10.75;9.07;;;;;;;0.22;100.00;96297.59;1024206;28;20271;-50
2021/05/08 02:21:40;;;;;;;9.63;8.15;;;;;;;0.21;100.00;96298.47;1028187;28;20262;-50
2021/05/08 02:22:11;;;;;;;11.95;8.13;;;;;;;0.20;100.00;96300.19;1028257;28;20258;-49
2021/05/08 02:22:42;;;;;;;13.82;8.57;;;;;;;0.23;100.00;96296.72;1032453;28;20295;-49
2021/05/08 02:23:14;;;;;;;12.60;8.68;;;;;;;0.22;100.00;96300.16;1028117;28;20246;-50
2021/05/08 02:23:45;;;;;;;11.25;8.32;;;;;;;0.15;100.00;96290.00;1028216;28;20269;-50
2021/05/08 02:24:16;;;;;;;11.50;8.40;;;;;;;0.18;100.00;96296.81;1020388;29;20821;-49
2021/05/08 02:24:48;;;;;;;11.82;8.30;;;;;;;0.18;100.00;96302.81;1020389;29;20027;-49